createdAt,value
2018-05-27T00:01:55.124Z,9.90
2018-05-27T00:04:21.850Z,10.10
2018-05-27T00:06:48.579Z,9.03
2018-05-27T00:09:15.301Z,10.00
2018-05-27T00:11:42.061Z,9.90
2018-05-27T00:14:08.789Z,9.60
2018-05-27T00:16:35.511Z,9.20
2018-05-27T00:19:02.239Z,10.10
2018-05-27T00:21:28.961Z,9.20
2018-05-27T00:23:55.715Z,10.00
2018-05-27T00:26:22.439Z,10.97
2018-05-27T00:28:49.159Z,9.70
2018-05-27T00:31:15.892Z,9.67
2018-05-27T00:33:42.620Z,9.93
2018-05-27T00:36:09.334Z,9.67
2018-05-27T00:38:36.064Z,9.27
2018-05-27T00:41:02.791Z,9.80
2018-05-27T00:43:29.522Z,10.27
2018-05-27T00:45:56.243Z,9.53
2018-05-27T00:48:22.985Z,9.67
2018-05-27T00:50:49.707Z,9.20
2018-05-27T00:53:16.424Z,9.03
2018-05-27T00:55:43.137Z,9.53
2018-05-27T00:58:09.845Z,8.60
2018-05-27T01:00:36.641Z,9.77
2018-05-27T01:03:03.369Z,9.90
2018-05-27T01:05:30.092Z,10.80
2018-05-27T01:07:56.835Z,9.50
2018-05-27T01:10:23.563Z,9.27
2018-05-27T01:12:50.293Z,10.73
2018-05-27T01:15:17.008Z,9.80
2018-05-27T01:17:43.736Z,9.20
2018-05-27T01:20:10.462Z,10.13
2018-05-27T01:22:37.195Z,10.30
2018-05-27T01:25:03.910Z,9.00
2018-05-27T01:27:30.626Z,9.30
2018-05-27T01:29:57.363Z,10.00
2018-05-27T01:32:24.100Z,10.43
2018-05-27T01:34:50.830Z,9.50
2018-05-27T01:37:17.572Z,10.23
2018-05-27T01:39:44.304Z,10.70
2018-05-27T01:42:11.037Z,10.27
2018-05-27T01:44:37.751Z,10.17
2018-05-27T01:47:04.463Z,9.83
2018-05-27T01:49:31.195Z,9.90
2018-05-27T01:51:57.935Z,10.20
2018-05-27T01:54:24.661Z,9.80
2018-05-27T01:56:51.410Z,10.10
2018-05-27T01:59:18.133Z,9.70
2018-05-27T02:01:44.896Z,10.70
2018-05-27T02:04:11.618Z,10.40
2018-05-27T02:06:38.341Z,9.80
2018-05-27T02:09:05.090Z,10.23
2018-05-27T02:11:31.812Z,9.33
2018-05-27T02:13:58.544Z,11.00
2018-05-27T02:16:25.269Z,10.67
2018-05-27T02:18:52.005Z,9.40
2018-05-27T02:21:18.721Z,8.60
2018-05-27T02:23:45.453Z,9.77
2018-05-27T02:26:12.177Z,9.77
2018-05-27T02:28:38.907Z,9.40
2018-05-27T02:31:05.620Z,10.13
2018-05-27T02:33:32.354Z,9.80
2018-05-27T02:35:59.073Z,9.20
2018-05-27T02:38:25.817Z,10.97
2018-05-27T02:40:52.575Z,10.10
2018-05-27T02:43:19.315Z,10.57
2018-05-27T02:45:46.053Z,10.30
2018-05-27T02:48:12.833Z,10.40
2018-05-27T02:50:39.545Z,9.90
2018-05-27T02:53:06.277Z,10.00
2018-05-27T02:55:33.018Z,9.97
2018-05-27T02:57:59.760Z,11.33
2018-05-27T03:00:26.502Z,10.10
2018-05-27T03:02:53.240Z,11.07
2018-05-27T03:05:19.975Z,9.90
2018-05-27T03:07:46.701Z,10.77
2018-05-27T03:10:13.433Z,10.20
2018-05-27T03:12:40.162Z,10.30
2018-05-27T03:15:06.910Z,10.50
2018-05-27T03:17:33.640Z,11.53
2018-05-27T03:20:00.375Z,10.50
2018-05-27T03:22:27.127Z,11.23
2018-05-27T03:24:53.857Z,12.87
2018-05-27T03:27:20.594Z,11.50
2018-05-27T03:29:47.325Z,11.43
2018-05-27T03:32:14.051Z,11.87
2018-05-27T03:34:40.783Z,11.67
2018-05-27T03:37:07.512Z,11.40
2018-05-27T03:39:34.261Z,10.53
2018-05-27T03:42:00.982Z,11.53
2018-05-27T03:44:27.712Z,11.40
2018-05-27T03:46:54.439Z,12.30
2018-05-27T03:49:21.184Z,11.97
2018-05-27T03:51:47.926Z,11.37
2018-05-27T03:54:14.655Z,11.10
2018-05-27T03:56:41.377Z,11.47
2018-05-27T03:59:08.119Z,12.27
2018-05-27T04:01:34.845Z,11.87
2018-05-27T04:04:07.506Z,11.37
2018-05-27T04:06:40.125Z,11.90
2018-05-27T04:09:06.849Z,12.93
2018-05-27T04:11:33.577Z,12.00
2018-05-27T04:14:00.303Z,12.43
2018-05-27T04:16:27.048Z,12.33
2018-05-27T04:18:53.770Z,11.80
2018-05-27T04:21:20.494Z,11.80
2018-05-27T04:23:47.238Z,12.87
2018-05-27T04:26:13.963Z,13.00
2018-05-27T04:28:40.758Z,13.23
2018-05-27T04:31:07.492Z,12.20
2018-05-27T04:33:34.219Z,13.03
2018-05-27T04:36:00.978Z,12.27
2018-05-27T04:38:27.736Z,13.10
2018-05-27T04:40:54.485Z,12.93
2018-05-27T04:43:21.215Z,13.50
2018-05-27T04:45:47.939Z,12.70
2018-05-27T04:48:14.664Z,12.90
2018-05-27T04:50:41.390Z,13.80
2018-05-27T04:53:08.126Z,14.03
2018-05-27T04:55:34.850Z,13.40
2018-05-27T04:58:01.612Z,13.43
2018-05-27T05:00:28.341Z,14.57
2018-05-27T05:02:55.067Z,12.80
2018-05-27T05:05:21.799Z,12.80
2018-05-27T05:07:48.529Z,13.63
2018-05-27T05:10:15.276Z,13.20
2018-05-27T05:12:42.004Z,13.63
2018-05-27T05:15:08.771Z,14.10
2018-05-27T05:17:35.501Z,13.33
2018-05-27T05:20:02.250Z,13.73
2018-05-27T05:22:28.973Z,14.17
2018-05-27T05:24:55.705Z,13.90
2018-05-27T05:27:22.450Z,14.30
2018-05-27T05:29:49.173Z,13.40
2018-05-27T05:32:15.898Z,13.70
2018-05-27T05:34:42.656Z,13.93
2018-05-27T05:37:09.402Z,13.70
2018-05-27T05:39:36.124Z,18.23
2018-05-27T05:42:02.870Z,14.60
2018-05-27T05:44:29.584Z,13.27
2018-05-27T05:46:56.338Z,13.00
2018-05-27T05:49:23.126Z,16.23
2018-05-27T05:51:49.846Z,13.60
2018-05-27T05:54:16.581Z,14.40
2018-05-27T05:56:43.326Z,12.57
2018-05-27T05:59:10.083Z,12.60
2018-05-27T06:01:36.827Z,13.37
2018-05-27T06:04:03.569Z,13.23
2018-05-27T06:06:30.301Z,11.57
2018-05-27T06:08:57.916Z,13.30
2018-05-27T06:11:24.650Z,12.40
2018-05-27T06:13:51.391Z,11.90
2018-05-27T06:16:18.129Z,12.10
2018-05-27T06:18:44.855Z,11.27
2018-05-27T06:21:11.589Z,11.30
2018-05-27T06:23:38.310Z,12.10
2018-05-27T06:26:05.071Z,11.30
2018-05-27T06:28:31.806Z,9.83
2018-05-27T06:30:58.580Z,11.53
2018-05-27T06:33:25.314Z,9.80
2018-05-27T06:35:52.033Z,10.37
2018-05-27T06:38:18.761Z,10.60
2018-05-27T06:40:45.520Z,10.10
2018-05-27T06:43:12.249Z,10.17
2018-05-27T06:45:39.000Z,10.40
2018-05-27T06:48:05.738Z,10.20
2018-05-27T06:50:32.480Z,9.73
2018-05-27T06:52:59.209Z,9.40
2018-05-27T06:55:25.929Z,9.57
2018-05-27T06:57:52.651Z,9.83
2018-05-27T07:00:19.367Z,9.07
2018-05-27T07:02:46.099Z,9.30
2018-05-27T07:05:12.844Z,9.60
2018-05-27T07:07:39.592Z,9.70
2018-05-27T07:10:06.362Z,8.60
2018-05-27T07:12:33.105Z,8.63
2018-05-27T07:14:59.825Z,8.93
2018-05-27T07:17:26.551Z,9.00
2018-05-27T07:19:53.328Z,8.23
2018-05-27T07:22:20.085Z,9.37
2018-05-27T07:24:46.833Z,8.10
2018-05-27T07:27:13.577Z,8.40
2018-05-27T07:29:40.313Z,7.87
2018-05-27T07:32:07.107Z,9.33
2018-05-27T07:34:33.875Z,8.67
2018-05-27T07:37:00.584Z,8.23
2018-05-27T07:39:27.316Z,8.20
2018-05-27T07:41:54.073Z,8.57
2018-05-27T07:44:20.793Z,7.93
2018-05-27T07:46:47.540Z,7.90
2018-05-27T07:49:14.266Z,8.33
2018-05-27T07:51:40.992Z,8.90
2018-05-27T07:54:07.740Z,8.53
2018-05-27T07:56:34.448Z,9.10
2018-05-27T07:59:01.157Z,8.67
2018-05-27T08:01:27.884Z,7.80
2018-05-27T08:03:54.609Z,7.30
2018-05-27T08:06:21.337Z,7.70
2018-05-27T08:08:48.053Z,7.40
2018-05-27T08:11:14.785Z,7.60
2018-05-27T08:13:41.504Z,7.37
2018-05-27T08:16:08.229Z,7.90
2018-05-27T08:18:34.973Z,7.17
2018-05-27T08:21:01.713Z,7.43
2018-05-27T08:23:28.449Z,7.63
2018-05-27T08:25:55.197Z,7.60
2018-05-27T08:28:21.946Z,8.23
2018-05-27T08:30:48.681Z,7.50
2018-05-27T08:33:15.417Z,7.50
2018-05-27T08:35:42.136Z,7.13
2018-05-27T08:38:08.857Z,7.00
2018-05-27T08:40:35.585Z,6.60
2018-05-27T08:43:02.315Z,6.53
2018-05-27T08:45:29.031Z,6.83
2018-05-27T08:47:55.757Z,6.73
2018-05-27T08:50:22.468Z,6.53
2018-05-27T08:52:49.185Z,7.83
2018-05-27T08:55:15.912Z,7.27
2018-05-27T08:57:42.628Z,6.57
2018-05-27T09:00:09.381Z,6.10
2018-05-27T09:02:36.151Z,7.00
2018-05-27T09:05:02.868Z,7.83
2018-05-27T09:07:29.597Z,7.63
2018-05-27T09:09:56.321Z,6.40
2018-05-27T09:12:23.042Z,6.37
2018-05-27T09:14:49.764Z,6.43
2018-05-27T09:17:16.470Z,6.20
2018-05-27T09:19:43.202Z,6.83
2018-05-27T09:22:09.938Z,6.13
2018-05-27T09:24:36.709Z,6.33
2018-05-27T09:27:03.537Z,6.47
2018-05-27T09:29:30.279Z,6.40
2018-05-27T09:31:57.025Z,6.30
2018-05-27T09:34:23.789Z,5.93
2018-05-27T09:36:50.500Z,6.20
2018-05-27T09:39:17.305Z,5.60
2018-05-27T09:41:51.029Z,6.03
2018-05-27T09:44:17.784Z,6.10
2018-05-27T09:46:44.537Z,5.77
2018-05-27T09:49:11.263Z,6.60
2018-05-27T09:51:38.017Z,6.67
2018-05-27T09:54:04.733Z,6.20
2018-05-27T09:56:31.514Z,5.67
2018-05-27T09:58:58.248Z,5.70
2018-05-27T10:01:24.975Z,5.93
2018-05-27T10:03:51.706Z,5.50
2018-05-27T10:06:18.455Z,5.20
2018-05-27T10:08:45.197Z,5.93
2018-05-27T10:11:11.971Z,6.23
2018-05-27T10:13:38.686Z,6.40
2018-05-27T10:16:05.484Z,5.87
2018-05-27T10:18:32.207Z,5.30
2018-05-27T10:20:58.930Z,5.47
2018-05-27T10:23:25.648Z,6.00
2018-05-27T10:25:52.440Z,6.43
2018-05-27T10:28:19.129Z,5.70
2018-05-27T10:30:45.843Z,5.43
2018-05-27T10:33:12.568Z,5.73
2018-05-27T10:35:39.332Z,5.37
2018-05-27T10:38:06.069Z,5.47
2018-05-27T10:40:32.809Z,4.43
2018-05-27T10:42:59.535Z,5.30
2018-05-27T10:45:26.248Z,5.60
2018-05-27T10:47:52.996Z,6.17
2018-05-27T10:50:19.705Z,6.40
2018-05-27T10:52:46.523Z,6.27
2018-05-27T10:55:13.258Z,5.23
2018-05-27T10:57:39.974Z,5.50
2018-05-27T11:00:06.794Z,23.30
2018-05-27T11:02:33.504Z,7.90
2018-05-27T11:05:00.220Z,4.40
2018-05-27T11:07:26.953Z,4.50
2018-05-27T11:09:53.693Z,4.97
2018-05-27T11:12:20.417Z,5.50
2018-05-27T11:14:47.153Z,5.17
2018-05-27T11:17:13.885Z,5.60
2018-05-27T11:19:43.243Z,5.50
2018-05-27T11:22:10.021Z,4.70
2018-05-27T11:24:36.756Z,5.27
2018-05-27T11:27:03.499Z,5.10
2018-05-27T11:29:30.293Z,4.50
2018-05-27T11:31:57.042Z,5.80
2018-05-27T11:34:23.750Z,5.13
2018-05-27T11:36:50.551Z,5.27
2018-05-27T11:39:17.251Z,5.13
2018-05-27T11:41:43.966Z,5.20
2018-05-27T11:44:10.700Z,4.90
2018-05-27T11:46:37.424Z,4.40
2018-05-27T11:49:04.138Z,4.63
2018-05-27T11:51:30.865Z,5.70
2018-05-27T11:53:57.601Z,5.83
2018-05-27T11:56:24.345Z,4.90
2018-05-27T11:58:51.097Z,5.43
2018-05-27T12:01:17.820Z,4.53
2018-05-27T12:03:44.561Z,5.03
2018-05-27T12:06:11.278Z,6.10
2018-05-27T12:08:38.022Z,4.80
2018-05-27T12:11:04.770Z,5.40
2018-05-27T12:13:31.493Z,7.80
2018-05-27T12:15:58.234Z,41.17
2018-05-27T12:18:24.973Z,5.70
2018-05-27T12:20:51.696Z,6.50
2018-05-27T12:23:18.446Z,4.33
2018-05-27T12:25:45.171Z,5.53
2018-05-27T12:28:11.911Z,5.20
2018-05-27T12:30:38.710Z,4.70
2018-05-27T12:33:05.470Z,5.30
2018-05-27T12:35:32.212Z,5.00
2018-05-27T12:37:58.977Z,4.90
2018-05-27T12:40:25.716Z,4.07
2018-05-27T12:42:52.529Z,4.10
2018-05-27T12:45:19.238Z,4.67
2018-05-27T12:47:45.976Z,4.63
2018-05-27T12:50:12.735Z,4.77
2018-05-27T12:52:39.464Z,6.30
2018-05-27T12:55:06.222Z,6.07
2018-05-27T12:57:32.963Z,5.80
2018-05-27T12:59:59.699Z,5.03
2018-05-27T13:02:26.444Z,5.10
2018-05-27T13:04:53.189Z,5.03
2018-05-27T13:07:19.935Z,5.93
2018-05-27T13:09:46.682Z,5.57
2018-05-27T13:12:13.406Z,5.03
2018-05-27T13:14:40.149Z,10.67
2018-05-27T13:17:06.865Z,5.77
2018-05-27T13:19:33.587Z,6.10
2018-05-27T13:22:00.325Z,5.80
2018-05-27T13:24:27.064Z,5.60
2018-05-27T13:26:53.813Z,5.90
2018-05-27T13:29:20.545Z,5.20
2018-05-27T13:31:47.271Z,5.97
2018-05-27T13:34:14.000Z,5.33
2018-05-27T13:36:40.718Z,5.67
2018-05-27T13:39:07.451Z,5.90
2018-05-27T13:41:34.202Z,5.50
2018-05-27T13:44:00.918Z,6.00
2018-05-27T13:46:27.648Z,5.53
2018-05-27T13:48:54.372Z,6.37
2018-05-27T13:51:21.118Z,5.60
2018-05-27T13:53:47.869Z,6.17
2018-05-27T13:56:14.599Z,5.97
2018-05-27T13:58:41.325Z,6.97
2018-05-27T14:01:08.046Z,6.43
2018-05-27T14:03:34.781Z,6.20
2018-05-27T14:06:01.519Z,13.30
2018-05-27T14:08:28.269Z,9.60
2018-05-27T14:10:54.990Z,7.50
2018-05-27T14:13:21.727Z,6.43
2018-05-27T14:15:48.476Z,6.20
2018-05-27T14:18:15.206Z,6.20
2018-05-27T14:20:41.946Z,6.83
2018-05-27T14:23:08.668Z,6.30
2018-05-27T14:25:35.392Z,6.40
2018-05-27T14:28:02.105Z,6.60
2018-05-27T14:30:28.849Z,6.40
2018-05-27T14:32:55.600Z,6.47
2018-05-27T14:35:22.471Z,6.70
2018-05-27T14:37:49.196Z,6.03
2018-05-27T14:40:15.931Z,6.40
2018-05-27T14:42:42.696Z,7.23
2018-05-27T14:45:09.455Z,7.30
2018-05-27T14:47:36.255Z,7.00
2018-05-27T14:50:03.023Z,7.03
2018-05-27T14:52:29.773Z,7.23
2018-05-27T14:54:56.494Z,7.80
2018-05-27T14:57:23.244Z,8.20
2018-05-27T14:59:50.032Z,8.30
2018-05-27T15:02:16.807Z,6.90
2018-05-27T15:04:43.546Z,6.83
2018-05-27T15:07:10.278Z,6.13
2018-05-27T15:09:37.007Z,6.10
2018-05-27T15:12:03.741Z,6.40
2018-05-27T15:14:30.446Z,6.13
2018-05-27T15:16:57.191Z,6.20
2018-05-27T15:19:23.962Z,5.30
2018-05-27T15:21:50.688Z,5.77
2018-05-27T15:24:17.427Z,5.80
2018-05-27T15:26:44.156Z,6.47
2018-05-27T15:29:10.877Z,5.47
2018-05-27T15:31:37.650Z,6.20
2018-05-27T15:34:04.400Z,6.77
2018-05-27T15:36:31.132Z,5.17
2018-05-27T15:38:57.857Z,5.50
2018-05-27T15:41:24.610Z,5.93
2018-05-27T15:43:51.345Z,5.10
2018-05-27T15:46:18.092Z,5.43
2018-05-27T15:48:44.806Z,5.87
2018-05-27T15:51:11.529Z,6.20
2018-05-27T15:53:38.261Z,5.60
2018-05-27T15:56:05.003Z,6.17
2018-05-27T15:58:31.754Z,6.17
2018-05-27T16:00:58.477Z,6.13
2018-05-27T16:03:25.233Z,5.90
2018-05-27T16:05:51.947Z,5.63
2018-05-27T16:08:18.678Z,6.80
2018-05-27T16:10:45.419Z,5.90
2018-05-27T16:13:12.144Z,5.67
2018-05-27T16:15:38.898Z,6.40
2018-05-27T16:18:05.679Z,6.20
2018-05-27T16:20:32.395Z,6.13
2018-05-27T16:22:59.134Z,6.40
2018-05-27T16:25:25.866Z,5.90
2018-05-27T16:27:52.588Z,6.53
2018-05-27T16:30:19.342Z,6.50
2018-05-27T16:32:46.057Z,6.10
2018-05-27T16:35:12.813Z,6.80
2018-05-27T16:37:39.562Z,6.67
2018-05-27T16:40:06.290Z,7.47
2018-05-27T16:42:33.019Z,6.80
2018-05-27T16:44:59.782Z,6.80
2018-05-27T16:47:26.596Z,7.10
2018-05-27T16:49:53.360Z,6.30
2018-05-27T16:52:20.090Z,7.40
2018-05-27T16:54:46.864Z,6.20
2018-05-27T16:57:13.655Z,6.67
2018-05-27T16:59:40.428Z,6.00
2018-05-27T17:02:07.157Z,7.17
2018-05-27T17:04:33.878Z,6.70
2018-05-27T17:07:00.610Z,7.27
2018-05-27T17:09:27.330Z,5.80
2018-05-27T17:11:54.110Z,6.10
2018-05-27T17:14:20.844Z,6.10
2018-05-27T17:16:47.557Z,5.90
2018-05-27T17:19:14.333Z,6.17
2018-05-27T17:21:41.101Z,6.47
2018-05-27T17:24:07.838Z,7.00
2018-05-27T17:26:34.600Z,5.33
2018-05-27T17:29:01.383Z,6.10
2018-05-27T17:31:28.156Z,4.60
2018-05-27T17:33:54.908Z,5.40
2018-05-27T17:36:21.653Z,4.90
2018-05-27T17:38:48.393Z,5.23
2018-05-27T17:41:15.113Z,4.93
2018-05-27T17:43:41.850Z,4.10
2018-05-27T17:46:08.590Z,4.83
2018-05-27T17:48:35.332Z,4.50
2018-05-27T17:51:02.078Z,4.90
2018-05-27T17:53:28.814Z,4.20
2018-05-27T17:55:55.627Z,4.20
2018-05-27T17:58:22.387Z,4.70
2018-05-27T18:00:49.435Z,4.10
2018-05-27T18:03:16.160Z,4.90
2018-05-27T18:05:42.884Z,5.00
2018-05-27T18:08:09.635Z,4.73
2018-05-27T18:10:36.378Z,5.83
2018-05-27T18:13:03.138Z,5.60
2018-05-27T18:15:29.932Z,5.30
2018-05-27T18:17:56.648Z,4.83
2018-05-27T18:20:23.403Z,5.67
2018-05-27T18:22:50.151Z,5.10
2018-05-27T18:25:16.861Z,5.90
2018-05-27T18:27:43.608Z,5.73
2018-05-27T18:30:10.352Z,6.13
2018-05-27T18:32:37.114Z,6.40
2018-05-27T18:35:03.862Z,6.30
2018-05-27T18:37:30.627Z,6.30
2018-05-27T18:39:57.378Z,6.63
2018-05-27T18:42:24.173Z,7.00
2018-05-27T18:44:50.905Z,7.00
2018-05-27T18:47:17.693Z,6.93
2018-05-27T18:49:44.469Z,7.00
2018-05-27T18:52:11.217Z,6.10
2018-05-27T18:54:37.935Z,6.00
2018-05-27T18:57:04.687Z,6.70
2018-05-27T18:59:31.439Z,6.57
2018-05-27T19:01:58.179Z,6.83
2018-05-27T19:04:25.010Z,7.00
2018-05-27T19:06:51.705Z,7.17
2018-05-27T19:09:18.424Z,6.80
2018-05-27T19:11:45.165Z,6.87
2018-05-27T19:14:11.896Z,7.60
2018-05-27T19:16:38.616Z,6.70
2018-05-27T19:19:05.373Z,7.03
2018-05-27T19:21:32.121Z,7.70
2018-05-27T19:23:59.061Z,8.63
2018-05-27T19:26:25.840Z,8.20
2018-05-27T19:28:52.606Z,6.83
2018-05-27T19:31:19.342Z,6.97
2018-05-27T19:33:46.174Z,8.00
2018-05-27T19:36:12.915Z,8.50
2018-05-27T19:38:39.664Z,7.53
2018-05-27T19:41:06.425Z,7.37
2018-05-27T19:43:33.161Z,7.23
2018-05-27T19:46:00.007Z,8.10
2018-05-27T19:48:26.746Z,7.30
2018-05-27T19:50:53.496Z,7.43
2018-05-27T19:53:20.246Z,7.50
2018-05-27T19:55:46.998Z,7.23
2018-05-27T19:58:23.251Z,8.17
2018-05-27T20:00:50.185Z,7.00
2018-05-27T20:03:16.919Z,6.83
2018-05-27T20:05:43.690Z,7.23
2018-05-27T20:08:10.424Z,7.20
2018-05-27T20:10:37.183Z,6.80
2018-05-27T20:13:03.930Z,6.30
2018-05-27T20:15:30.677Z,7.37
2018-05-27T20:17:57.410Z,7.43
2018-05-27T20:20:24.710Z,7.33
2018-05-27T20:22:51.458Z,7.73
2018-05-27T20:25:18.189Z,7.50
2018-05-27T20:27:44.942Z,7.40
2018-05-27T20:30:11.903Z,7.60
2018-05-27T20:32:38.666Z,7.37
2018-05-27T20:35:05.447Z,7.80
2018-05-27T20:37:32.178Z,7.30
2018-05-27T20:39:58.927Z,7.20
2018-05-27T20:42:25.666Z,6.33
2018-05-27T20:44:52.433Z,7.00
2018-05-27T20:47:19.193Z,6.77
2018-05-27T20:49:45.916Z,7.00
2018-05-27T20:52:12.674Z,7.00
2018-05-27T20:54:39.403Z,7.17
2018-05-27T20:57:06.159Z,7.20
2018-05-27T20:59:32.933Z,7.63
2018-05-27T21:01:59.741Z,6.00
2018-05-27T21:04:26.473Z,5.90
2018-05-27T21:06:53.198Z,6.00
2018-05-27T21:09:20.023Z,7.07
2018-05-27T21:11:46.767Z,6.77
2018-05-27T21:14:13.509Z,6.33
2018-05-27T21:16:40.235Z,7.40
2018-05-27T21:19:07.009Z,6.43
2018-05-27T21:21:33.741Z,6.43
2018-05-27T21:24:00.484Z,6.73
2018-05-27T21:26:27.341Z,6.93
2018-05-27T21:28:54.076Z,6.93
2018-05-27T21:31:20.818Z,7.93
2018-05-27T21:33:47.556Z,6.60
2018-05-27T21:36:14.294Z,6.07
2018-05-27T21:38:41.435Z,5.87
2018-05-27T21:41:08.177Z,6.47
2018-05-27T21:43:34.921Z,6.70
2018-05-27T21:46:01.652Z,7.07
2018-05-27T21:48:28.406Z,7.20
2018-05-27T21:50:55.141Z,6.97
2018-05-27T21:53:21.898Z,7.30
2018-05-27T21:55:48.608Z,6.27
2018-05-27T21:58:15.346Z,6.30
2018-05-27T22:00:42.063Z,5.57
2018-05-27T22:03:08.807Z,6.13
2018-05-27T22:05:35.545Z,6.60
2018-05-27T22:08:02.278Z,5.90
2018-05-27T22:10:29.012Z,6.57
2018-05-27T22:12:55.738Z,6.43
2018-05-27T22:15:22.473Z,6.30
2018-05-27T22:17:49.214Z,5.43
2018-05-27T22:20:15.944Z,6.03
2018-05-27T22:22:42.671Z,6.03
2018-05-27T22:25:09.401Z,5.57
2018-05-27T22:27:36.125Z,6.10
2018-05-27T22:30:02.884Z,5.63
2018-05-27T22:32:29.610Z,5.70
2018-05-27T22:34:56.355Z,5.83
2018-05-27T22:37:23.085Z,5.47
2018-05-27T22:39:49.853Z,5.73
2018-05-27T22:42:16.637Z,5.97
2018-05-27T22:44:43.352Z,5.10
2018-05-27T22:47:10.086Z,6.17
2018-05-27T22:49:36.807Z,5.87
2018-05-27T22:52:03.530Z,5.03
2018-05-27T22:54:30.264Z,5.83
2018-05-27T22:56:56.984Z,6.03
2018-05-27T22:59:23.726Z,5.33
2018-05-27T23:01:50.472Z,4.63
2018-05-27T23:04:17.199Z,5.57
2018-05-27T23:06:43.939Z,5.23
2018-05-27T23:09:10.650Z,5.20
2018-05-27T23:11:37.361Z,4.77
2018-05-27T23:14:04.095Z,4.83
2018-05-27T23:16:30.826Z,4.63
2018-05-27T23:18:57.596Z,4.80
2018-05-27T23:21:24.326Z,4.73
2018-05-27T23:23:51.056Z,4.73
2018-05-27T23:26:17.786Z,4.60
2018-05-27T23:28:44.531Z,5.40
2018-05-27T23:31:11.271Z,5.00
2018-05-27T23:33:37.999Z,4.53
2018-05-27T23:36:04.772Z,5.10
2018-05-27T23:38:31.548Z,5.03
2018-05-27T23:40:58.273Z,5.03
2018-05-27T23:43:24.993Z,5.27
2018-05-27T23:45:51.728Z,4.57
2018-05-27T23:48:18.449Z,4.30
2018-05-27T23:50:45.198Z,5.03
2018-05-27T23:53:11.921Z,5.00
2018-05-27T23:55:38.646Z,5.00
2018-05-27T23:58:05.373Z,5.40
